createdAt,value
2023-01-15T06:19:13.136Z,85.95
2023-01-15T06:21:40.217Z,86.43
2023-01-15T06:24:07.569Z,86.53
2023-01-15T06:26:35.240Z,86.53
2023-01-15T06:29:02.193Z,86.51
2023-01-15T06:31:29.437Z,86.47
2023-01-15T06:33:56.405Z,86.26
2023-01-15T06:36:24.787Z,86.40
2023-01-15T06:38:52.145Z,86.17
2023-01-15T06:41:39.935Z,86.51
2023-01-15T06:44:34.554Z,86.43
2023-01-15T06:47:33.941Z,86.47
2023-01-15T06:50:00.903Z,86.40
2023-01-15T06:52:28.240Z,86.39
2023-01-15T06:54:55.304Z,86.31
2023-01-15T06:57:22.407Z,86.37
2023-01-15T06:59:49.473Z,86.45
2023-01-15T07:02:17.481Z,86.47
2023-01-15T07:04:44.635Z,86.40
2023-01-15T07:07:11.486Z,86.36
2023-01-15T07:09:40.079Z,86.23
2023-01-15T07:12:06.931Z,86.18
2023-01-15T07:14:33.973Z,86.20
2023-01-15T07:17:00.829Z,86.15
2023-01-15T07:19:27.975Z,86.12
2023-01-15T07:21:54.850Z,86.08
2023-01-15T07:24:21.602Z,85.90
2023-01-15T07:26:48.624Z,85.82
2023-01-15T07:29:15.673Z,85.90
2023-01-15T07:31:43.190Z,85.87
2023-01-15T07:34:10.293Z,86.17
2023-01-15T07:36:37.245Z,86.09
2023-01-15T07:39:05.016Z,85.76
2023-01-15T07:41:50.495Z,85.90
2023-01-15T07:44:35.774Z,85.73
2023-01-15T07:47:21.473Z,85.63
2023-01-15T07:49:48.803Z,85.43
2023-01-15T07:52:17.993Z,85.65
2023-01-15T07:54:45.495Z,85.53
2023-01-15T07:57:13.222Z,85.62
2023-01-15T07:59:40.078Z,85.67
2023-01-15T08:02:06.994Z,85.56
2023-01-15T08:04:33.879Z,85.72
2023-01-15T08:07:01.637Z,85.82
2023-01-15T08:09:29.512Z,85.87
2023-01-15T08:12:18.872Z,85.96
2023-01-15T08:15:05.267Z,85.73
2023-01-15T08:17:34.465Z,85.64
2023-01-15T08:20:02.950Z,85.83
2023-01-15T08:22:29.903Z,85.87
2023-01-15T08:24:57.163Z,85.89
2023-01-15T08:27:24.088Z,85.98
2023-01-15T08:29:50.998Z,85.83
2023-01-15T08:32:17.804Z,85.97
2023-01-15T08:34:44.759Z,85.82
2023-01-15T08:37:11.596Z,85.84
2023-01-15T08:39:38.451Z,86.05
2023-01-15T08:42:05.402Z,85.92
2023-01-15T08:44:32.660Z,85.82
2023-01-15T08:46:59.512Z,85.70
2023-01-15T08:49:26.561Z,85.88
2023-01-15T08:51:53.411Z,85.87
2023-01-15T08:54:21.043Z,85.82
2023-01-15T08:56:49.098Z,85.81
2023-01-15T08:59:15.989Z,85.83
2023-01-15T09:01:44.124Z,85.89
2023-01-15T09:04:15.004Z,86.05
2023-01-15T09:06:42.174Z,86.06
2023-01-15T09:09:09.411Z,85.94
2023-01-15T09:11:39.914Z,85.93
2023-01-15T09:14:08.042Z,85.78
2023-01-15T09:16:55.382Z,85.74
2023-01-15T09:19:22.404Z,85.76
2023-01-15T09:21:49.263Z,85.76
2023-01-15T09:24:16.208Z,85.73
2023-01-15T09:26:43.152Z,85.76
2023-01-15T09:29:10.205Z,86.00
2023-01-15T09:31:37.086Z,85.87
2023-01-15T09:34:04.220Z,85.68
2023-01-15T09:36:33.144Z,85.69
2023-01-15T09:39:00.740Z,85.61
2023-01-15T09:42:00.571Z,85.46
2023-01-15T09:44:34.888Z,85.41
2023-01-15T09:47:27.871Z,85.33
2023-01-15T09:50:09.522Z,85.31
2023-01-15T09:52:48.799Z,85.33
2023-01-15T09:55:29.211Z,85.27
2023-01-15T09:57:58.106Z,85.34
2023-01-15T10:00:26.352Z,85.48
2023-01-15T10:03:32.761Z,85.23
2023-01-15T14:16:54.131Z,91.27
2023-01-15T18:06:39.931Z,86.24
2023-01-15T18:09:07.182Z,86.18
2023-01-15T18:11:34.072Z,86.13
2023-01-15T18:14:00.981Z,86.42
2023-01-15T18:16:28.371Z,86.61
2023-01-15T18:18:55.501Z,86.52
2023-01-15T18:21:22.447Z,86.22
2023-01-15T18:23:49.399Z,86.57
2023-01-15T18:26:16.299Z,86.50
2023-01-15T18:28:45.351Z,86.49
2023-01-15T18:31:12.349Z,86.82
2023-01-15T18:33:39.453Z,87.18
2023-01-15T18:36:08.030Z,87.57
2023-01-15T18:38:36.423Z,87.80
2023-01-15T18:41:11.372Z,87.99
2023-01-15T18:43:58.502Z,87.77
2023-01-15T18:46:43.639Z,87.70
2023-01-15T18:49:10.637Z,87.45
2023-01-15T18:51:37.631Z,87.19
2023-01-15T18:54:06.409Z,87.23
2023-01-15T18:56:39.346Z,87.18
2023-01-15T18:59:10.874Z,87.01
2023-01-15T19:01:38.393Z,86.83
2023-01-15T19:04:06.952Z,86.80
2023-01-15T19:06:34.498Z,87.13
2023-01-15T19:09:01.445Z,87.18
2023-01-15T19:11:28.687Z,87.18
2023-01-15T19:14:14.468Z,86.93
2023-01-15T19:17:00.144Z,86.95
2023-01-15T19:19:30.151Z,87.28
2023-01-15T19:22:15.945Z,87.34
2023-01-15T19:24:42.899Z,87.22
2023-01-15T19:27:10.051Z,87.25
2023-01-15T19:29:36.947Z,87.47
2023-01-15T19:32:04.442Z,87.24
2023-01-15T19:34:34.097Z,87.18
2023-01-15T19:37:01.611Z,87.37
2023-01-15T19:39:29.219Z,87.28
2023-01-15T19:42:15.298Z,87.29
2023-01-15T19:45:01.108Z,87.80
2023-01-15T19:47:56.088Z,87.65
2023-01-15T19:50:26.265Z,87.33
2023-01-15T19:52:54.611Z,87.47
2023-01-15T19:55:23.256Z,87.12
2023-01-15T19:57:56.515Z,86.55
2023-01-15T20:00:23.845Z,86.65
2023-01-15T20:02:50.744Z,86.47
2023-01-15T20:05:18.981Z,86.20
2023-01-15T20:07:45.845Z,85.95
2023-01-15T20:10:14.522Z,85.67
2023-01-15T20:13:00.149Z,85.36
2023-01-15T20:15:27.527Z,85.50
2023-01-15T20:17:54.463Z,85.65
2023-01-15T20:20:21.518Z,85.86
2023-01-15T20:22:48.592Z,85.59
2023-01-15T20:25:15.619Z,85.32
2023-01-15T20:27:42.576Z,85.75
2023-01-15T20:30:15.590Z,85.56
2023-01-15T20:32:44.998Z,85.40
2023-01-15T20:35:13.765Z,85.48
2023-01-15T20:37:40.674Z,85.47
2023-01-15T20:40:08.470Z,85.39
2023-01-15T20:42:54.567Z,85.36
2023-01-15T20:45:21.824Z,85.15
2023-01-15T20:48:07.447Z,85.08
2023-01-15T20:50:36.135Z,85.09
2023-01-15T20:53:04.060Z,85.25
2023-01-15T20:55:53.881Z,85.27
2023-01-15T20:58:23.195Z,85.24
2023-01-15T21:00:51.013Z,85.45
2023-01-15T21:03:18.390Z,85.71
2023-01-15T21:05:45.499Z,85.73
2023-01-15T21:08:12.562Z,85.72
2023-01-15T21:10:40.279Z,85.72
2023-01-15T21:13:07.325Z,85.53
2023-01-15T21:15:34.346Z,85.24
2023-01-15T21:18:01.301Z,85.19
2023-01-15T21:20:28.246Z,85.06
2023-01-15T21:22:57.343Z,85.03
2023-01-15T21:25:24.312Z,85.06
2023-01-15T21:27:51.757Z,85.13
2023-01-15T21:30:18.710Z,85.12
2023-01-15T21:32:46.403Z,85.06
2023-01-15T21:35:13.537Z,85.02
2023-01-15T21:37:40.479Z,85.08
2023-01-15T21:40:08.203Z,84.92
2023-01-15T21:42:53.926Z,84.87
2023-01-15T21:45:20.876Z,84.85
2023-01-15T21:47:47.785Z,84.57
2023-01-15T21:50:16.959Z,84.54
2023-01-15T21:52:44.140Z,84.90
2023-01-15T21:55:11.139Z,85.00
2023-01-15T21:57:38.490Z,84.98
2023-01-15T22:00:06.978Z,85.17
2023-01-15T22:02:36.111Z,85.03
2023-01-15T22:05:04.464Z,85.11
2023-01-15T22:07:31.417Z,85.18
2023-01-15T22:09:58.360Z,85.02
